createdAt,value
2018-11-07T00:00:17.052Z,98.97
2018-11-07T00:02:47.411Z,98.61
2018-11-07T00:05:17.664Z,98.34
2018-11-07T00:07:46.085Z,99.03
2018-11-07T00:11:18.341Z,99.92
2018-11-07T00:13:47.744Z,100.00
2018-11-07T00:16:17.524Z,100.00
2018-11-07T00:18:48.906Z,100.00
2018-11-07T00:21:28.119Z,100.00
2018-11-07T00:23:57.190Z,99.87
2018-11-07T00:26:33.371Z,100.00
2018-11-07T00:29:21.736Z,99.65
2018-11-07T00:32:10.257Z,99.89
2018-11-07T00:34:53.577Z,98.65
2018-11-07T00:37:22.190Z,99.20
2018-11-07T00:39:51.257Z,99.57
2018-11-07T00:42:19.447Z,99.52
2018-11-07T00:44:47.524Z,98.31
2018-11-07T00:47:15.692Z,98.57
2018-11-07T00:49:43.813Z,98.54
2018-11-07T00:52:11.935Z,98.56
2018-11-07T00:54:40.095Z,99.34
2018-11-07T00:57:08.927Z,99.09
2018-11-07T00:59:37.200Z,98.75
2018-11-07T01:02:05.346Z,98.42
2018-11-07T01:04:33.500Z,97.66
2018-11-07T01:07:01.617Z,98.08
2018-11-07T01:09:29.775Z,97.93
2018-11-07T01:11:57.838Z,97.99
2018-11-07T01:14:25.960Z,97.57
2018-11-07T01:16:54.100Z,97.79
2018-11-07T01:19:22.244Z,97.29
2018-11-07T01:21:50.341Z,97.31
2018-11-07T01:24:18.578Z,97.31
2018-11-07T01:26:46.672Z,97.87
2018-11-07T01:29:14.799Z,98.49
2018-11-07T01:31:42.942Z,99.06
2018-11-07T01:34:11.090Z,99.12
2018-11-07T01:36:39.115Z,99.58
2018-11-07T01:39:08.481Z,99.60
2018-11-07T01:41:36.596Z,100.00
2018-11-07T01:44:04.740Z,100.00
2018-11-07T01:46:32.903Z,100.00
2018-11-07T01:49:01.023Z,100.00
2018-11-07T01:51:29.150Z,100.00
2018-11-07T01:53:57.288Z,100.00
2018-11-07T01:56:25.451Z,100.00
2018-11-07T01:58:53.564Z,100.00
2018-11-07T02:01:21.682Z,100.00
2018-11-07T02:03:49.816Z,100.00
2018-11-07T02:06:17.943Z,100.00
2018-11-07T02:08:46.060Z,100.00
2018-11-07T02:11:14.188Z,100.00
2018-11-07T02:13:42.401Z,100.00
2018-11-07T02:16:10.530Z,100.00
2018-11-07T02:18:38.734Z,100.00
2018-11-07T02:21:06.883Z,100.00
2018-11-07T02:23:34.984Z,99.07
2018-11-07T02:26:03.096Z,99.03
2018-11-07T02:28:31.216Z,99.31
2018-11-07T02:30:59.356Z,99.89
2018-11-07T02:33:27.477Z,100.00
2018-11-07T02:35:55.604Z,100.00
2018-11-07T02:38:23.709Z,99.94
2018-11-07T02:40:51.887Z,98.90
2018-11-07T02:43:19.996Z,98.94
2018-11-07T02:45:48.154Z,99.19
2018-11-07T02:48:16.263Z,98.78
2018-11-07T02:50:44.395Z,99.83
2018-11-07T02:53:12.504Z,100.00
2018-11-07T02:55:40.595Z,99.92
2018-11-07T02:58:08.688Z,98.94
2018-11-07T03:00:36.808Z,98.56
2018-11-07T03:03:04.969Z,99.46
2018-11-07T03:05:33.088Z,100.00
2018-11-07T03:08:01.197Z,100.00
2018-11-07T03:10:29.475Z,100.00
2018-11-07T03:12:57.615Z,100.00
2018-11-07T03:15:25.764Z,100.00
2018-11-07T03:17:53.876Z,100.00
2018-11-07T03:20:21.986Z,100.00
2018-11-07T03:22:50.095Z,100.00
2018-11-07T03:25:18.221Z,100.00
2018-11-07T03:27:46.473Z,100.00
2018-11-07T03:30:14.598Z,100.00
2018-11-07T03:32:42.708Z,100.00
2018-11-07T03:35:16.177Z,100.00
2018-11-07T03:37:44.352Z,100.00
2018-11-07T03:40:12.457Z,100.00
2018-11-07T03:42:40.563Z,100.00
2018-11-07T03:45:09.058Z,100.00
2018-11-07T03:47:37.148Z,100.00
2018-11-07T03:50:05.635Z,100.00
2018-11-07T03:52:33.775Z,100.00
2018-11-07T03:55:01.885Z,100.00
2018-11-07T03:57:30.039Z,100.00
2018-11-07T03:59:58.148Z,100.00
2018-11-07T04:02:26.305Z,100.00
2018-11-07T04:04:54.441Z,99.59
2018-11-07T04:07:22.555Z,99.46
2018-11-07T04:09:50.669Z,99.35
2018-11-07T04:12:18.876Z,99.26
2018-11-07T04:14:46.980Z,99.32
2018-11-07T04:17:15.084Z,99.86
2018-11-07T04:19:43.228Z,100.00
2018-11-07T04:22:11.311Z,100.00
2018-11-07T04:24:39.407Z,100.00
2018-11-07T04:27:07.523Z,100.00
2018-11-07T04:29:35.627Z,100.00
2018-11-07T04:32:10.417Z,100.00
2018-11-07T04:34:38.568Z,100.00
2018-11-07T04:37:06.663Z,100.00
2018-11-07T04:39:34.780Z,100.00
2018-11-07T04:42:02.998Z,100.00
2018-11-07T04:44:31.076Z,100.00
2018-11-07T04:46:59.230Z,100.00
2018-11-07T04:49:27.415Z,100.00
2018-11-07T04:51:55.595Z,100.00
2018-11-07T04:54:23.715Z,100.00
2018-11-07T04:56:51.816Z,100.00
2018-11-07T04:59:19.934Z,100.00
2018-11-07T05:01:48.058Z,100.00
2018-11-07T05:04:16.163Z,100.00
2018-11-07T05:06:44.299Z,100.00
2018-11-07T05:09:12.403Z,100.00
2018-11-07T05:11:40.487Z,100.00
2018-11-07T05:14:08.597Z,100.00
2018-11-07T05:16:36.697Z,100.00
2018-11-07T05:19:04.860Z,100.00
2018-11-07T05:21:33.002Z,100.00
2018-11-07T05:24:01.126Z,100.00
2018-11-07T05:26:29.260Z,100.00
2018-11-07T05:28:57.375Z,100.00
2018-11-07T05:31:25.849Z,100.00
2018-11-07T05:33:54.240Z,100.00
2018-11-07T05:36:22.341Z,100.00
2018-11-07T05:38:50.434Z,100.00
2018-11-07T05:41:18.608Z,100.00
2018-11-07T05:43:47.040Z,100.00
2018-11-07T05:46:15.170Z,100.00
2018-11-07T05:48:43.288Z,100.00
2018-11-07T05:51:11.395Z,100.00
2018-11-07T05:53:39.501Z,100.00
2018-11-07T05:56:07.587Z,100.00
2018-11-07T05:58:35.700Z,100.00
2018-11-07T06:01:03.809Z,100.00
2018-11-07T06:03:31.938Z,100.00
2018-11-07T06:06:00.041Z,100.00
2018-11-07T06:08:28.295Z,100.00
2018-11-07T06:10:56.395Z,100.00
2018-11-07T06:13:24.519Z,100.00
2018-11-07T06:15:52.632Z,100.00
2018-11-07T06:18:20.813Z,100.00
2018-11-07T06:20:48.917Z,100.00
2018-11-07T06:23:17.019Z,100.00
2018-11-07T06:25:45.097Z,100.00
2018-11-07T06:28:13.211Z,100.00
2018-11-07T06:30:41.333Z,100.00
2018-11-07T06:33:09.517Z,100.00
2018-11-07T06:35:37.619Z,100.00
2018-11-07T06:38:05.747Z,100.00
2018-11-07T06:40:33.909Z,100.00
2018-11-07T06:43:02.031Z,100.00
2018-11-07T06:45:30.138Z,100.00
2018-11-07T06:47:58.251Z,100.00
2018-11-07T06:50:26.361Z,100.00
2018-11-07T06:52:54.500Z,100.00
2018-11-07T06:55:22.598Z,100.00
2018-11-07T06:57:50.687Z,100.00
2018-11-07T07:00:18.781Z,100.00
2018-11-07T07:02:47.903Z,100.00
2018-11-07T07:05:16.368Z,100.00
2018-11-07T07:07:44.488Z,100.00
2018-11-07T07:10:14.824Z,100.00
2018-11-07T07:12:43.075Z,100.00
2018-11-07T07:15:14.177Z,100.00
2018-11-07T07:17:42.441Z,100.00
2018-11-07T07:20:14.036Z,100.00
2018-11-07T07:22:42.729Z,100.00
2018-11-07T07:25:11.871Z,100.00
2018-11-07T07:27:40.334Z,100.00
2018-11-07T07:30:11.205Z,100.00
2018-11-07T07:32:39.759Z,100.00
2018-11-07T07:35:07.882Z,100.00
2018-11-07T07:37:35.995Z,100.00
2018-11-07T07:40:04.704Z,100.00
2018-11-07T07:42:32.920Z,100.00
2018-11-07T07:45:01.014Z,100.00
2018-11-07T07:47:29.103Z,100.00
2018-11-07T07:49:57.309Z,100.00
2018-11-07T07:52:25.392Z,100.00
2018-11-07T07:54:53.501Z,100.00
2018-11-07T07:57:21.663Z,100.00
2018-11-07T07:59:49.829Z,100.00
2018-11-07T08:02:18.071Z,100.00
2018-11-07T08:04:46.261Z,100.00
2018-11-07T08:07:14.373Z,100.00
2018-11-07T08:09:42.494Z,100.00
2018-11-07T08:12:10.628Z,100.00
2018-11-07T08:14:38.768Z,100.00
2018-11-07T08:17:06.946Z,100.00
2018-11-07T08:19:35.081Z,100.00
2018-11-07T08:22:03.193Z,100.00
2018-11-07T08:24:31.356Z,100.00
2018-11-07T08:26:59.579Z,100.00
2018-11-07T08:29:27.683Z,100.00
2018-11-07T08:31:55.814Z,100.00
2018-11-07T08:34:23.924Z,100.00
2018-11-07T08:36:52.054Z,100.00
2018-11-07T08:39:20.151Z,100.00
2018-11-07T08:41:48.259Z,100.00
2018-11-07T08:44:16.379Z,100.00
2018-11-07T08:46:44.488Z,100.00
2018-11-07T08:49:12.600Z,100.00
2018-11-07T08:51:40.703Z,100.00
2018-11-07T08:54:08.891Z,100.00
2018-11-07T08:56:37.133Z,100.00
2018-11-07T08:59:05.387Z,100.00
2018-11-07T09:04:01.753Z,100.00
2018-11-07T09:06:29.891Z,100.00
2018-11-07T09:08:57.982Z,100.00
2018-11-07T09:11:26.103Z,100.00
2018-11-07T09:13:54.248Z,100.00
2018-11-07T09:16:22.364Z,99.30
2018-11-07T09:18:50.467Z,99.23
2018-11-07T09:21:18.572Z,99.35
2018-11-07T09:23:46.763Z,99.08
2018-11-07T09:26:14.940Z,99.04
2018-11-07T09:28:43.058Z,98.85
2018-11-07T09:31:11.174Z,98.40
2018-11-07T09:33:39.268Z,97.09
2018-11-07T09:36:07.380Z,97.03
2018-11-07T09:38:35.489Z,96.85
2018-11-07T09:41:03.638Z,96.80
2018-11-07T09:43:31.741Z,96.43
2018-11-07T09:45:59.884Z,95.67
2018-11-07T09:48:27.992Z,95.59
2018-11-07T09:50:56.240Z,94.77
2018-11-07T09:53:24.353Z,94.74
2018-11-07T09:55:52.487Z,94.00
2018-11-07T09:58:20.605Z,93.66
2018-11-07T10:00:48.704Z,93.19
2018-11-07T10:03:16.811Z,92.21
2018-11-07T10:05:44.932Z,91.32
2018-11-07T10:08:13.093Z,91.03
2018-11-07T10:10:41.240Z,90.52
2018-11-07T10:13:09.373Z,89.83
2018-11-07T10:15:37.516Z,88.54
2018-11-07T10:18:05.712Z,88.20
2018-11-07T10:20:33.946Z,87.94
2018-11-07T10:23:01.965Z,86.82
2018-11-07T10:25:30.071Z,87.78
2018-11-07T10:27:58.715Z,88.07
2018-11-07T10:30:26.352Z,87.26
2018-11-07T10:32:54.451Z,86.98
2018-11-07T10:35:22.569Z,87.21
2018-11-07T10:37:50.743Z,87.64
2018-11-07T10:40:20.252Z,86.09
2018-11-07T10:42:48.498Z,85.66
2018-11-07T10:45:16.625Z,85.63
2018-11-07T10:47:45.838Z,84.74
2018-11-07T10:50:14.915Z,84.40
2018-11-07T10:52:43.959Z,84.84
2018-11-07T10:55:12.920Z,85.25
2018-11-07T10:57:41.055Z,83.47
2018-11-07T11:00:17.592Z,83.61
2018-11-07T11:02:45.743Z,82.64
2018-11-07T11:05:14.593Z,82.85
2018-11-07T11:07:42.914Z,83.36
2018-11-07T11:10:12.464Z,82.84
2018-11-07T11:12:40.937Z,82.30
2018-11-07T11:15:09.172Z,82.44
2018-11-07T11:17:37.367Z,82.11
2018-11-07T11:20:07.374Z,82.02
2018-11-07T11:22:35.588Z,81.05
2018-11-07T11:25:03.715Z,80.26
2018-11-07T11:27:31.922Z,80.59
2018-11-07T11:30:00.077Z,80.10
2018-11-07T11:32:28.195Z,79.50
2018-11-07T11:34:56.420Z,79.23
2018-11-07T11:37:24.518Z,78.37
2018-11-07T11:39:52.671Z,78.08
2018-11-07T11:42:20.775Z,78.01
2018-11-07T11:44:48.887Z,77.97
2018-11-07T11:47:17.056Z,78.43
2018-11-07T11:49:45.332Z,77.94
2018-11-07T11:52:13.461Z,77.70
2018-11-07T11:54:41.564Z,76.93
2018-11-07T11:57:09.663Z,76.92
2018-11-07T11:59:38.087Z,77.62
2018-11-07T12:02:05.946Z,77.06
2018-11-07T12:04:34.055Z,76.97
2018-11-07T12:07:02.177Z,76.39
2018-11-07T12:09:30.335Z,75.59
2018-11-07T12:11:58.489Z,76.05
2018-11-07T12:14:26.611Z,75.95
2018-11-07T12:16:54.730Z,75.93
2018-11-07T12:19:22.831Z,73.97
2018-11-07T12:21:51.256Z,73.83
2018-11-07T12:24:19.363Z,73.48
2018-11-07T12:26:47.527Z,72.15
2018-11-07T12:29:15.620Z,72.01
2018-11-07T12:31:43.795Z,72.84
2018-11-07T12:34:11.935Z,72.34
2018-11-07T12:36:40.047Z,71.75
2018-11-07T12:39:08.688Z,71.91
2018-11-07T12:41:36.815Z,72.47
2018-11-07T12:44:05.033Z,72.54
2018-11-07T12:46:33.143Z,72.10
2018-11-07T12:49:01.438Z,71.34
2018-11-07T12:51:29.557Z,71.54
2018-11-07T12:53:57.741Z,71.40
2018-11-07T12:56:25.819Z,70.92
2018-11-07T12:58:53.954Z,71.17
2018-11-07T13:01:22.138Z,70.91
2018-11-07T13:03:50.240Z,71.52
2018-11-07T13:06:18.344Z,70.81
2018-11-07T13:08:46.441Z,70.92
2018-11-07T13:11:14.570Z,70.46
2018-11-07T13:13:42.656Z,69.73
2018-11-07T13:16:10.758Z,70.65
2018-11-07T13:18:38.871Z,69.70
2018-11-07T13:21:06.984Z,70.57
2018-11-07T13:23:35.124Z,69.90
2018-11-07T13:26:03.213Z,69.18
2018-11-07T13:28:31.348Z,70.10
2018-11-07T13:30:59.455Z,69.19
2018-11-07T13:33:27.553Z,69.12
2018-11-07T13:35:55.699Z,68.64
2018-11-07T13:38:24.180Z,68.88
2018-11-07T13:40:51.943Z,68.64
2018-11-07T13:43:20.092Z,69.02
2018-11-07T13:45:48.225Z,69.02
2018-11-07T13:48:16.364Z,68.63
2018-11-07T13:50:44.568Z,68.66
2018-11-07T13:53:12.738Z,69.48
2018-11-07T13:55:40.869Z,68.00
2018-11-07T13:58:08.968Z,67.86
2018-11-07T14:00:37.067Z,68.68
2018-11-07T14:03:05.340Z,66.99
2018-11-07T14:05:33.588Z,67.33
2018-11-07T14:08:01.714Z,66.59
2018-11-07T14:10:29.802Z,67.85
2018-11-07T14:12:57.938Z,67.62
2018-11-07T14:15:26.027Z,67.64
2018-11-07T14:17:54.156Z,67.60
2018-11-07T14:20:22.286Z,67.29
2018-11-07T14:22:50.370Z,67.22
2018-11-07T14:25:18.465Z,67.84
2018-11-07T14:27:46.788Z,67.94
2018-11-07T14:30:16.030Z,67.77
2018-11-07T14:32:51.588Z,67.44
2018-11-07T14:35:19.774Z,67.49
2018-11-07T14:37:47.865Z,68.25
2018-11-07T14:40:16.047Z,68.06
2018-11-07T14:42:44.146Z,69.01
2018-11-07T14:45:12.859Z,69.51
2018-11-07T14:47:41.616Z,68.71
2018-11-07T14:50:10.395Z,70.03
2018-11-07T14:52:38.485Z,70.00
2018-11-07T14:55:06.847Z,70.17
2018-11-07T14:57:35.524Z,71.03
2018-11-07T15:00:03.901Z,71.33
2018-11-07T15:02:35.065Z,71.02
2018-11-07T15:05:03.166Z,72.02
2018-11-07T15:07:31.235Z,71.46
2018-11-07T15:10:00.436Z,72.78
2018-11-07T15:12:28.593Z,72.47
2018-11-07T15:14:56.723Z,73.17
2018-11-07T15:17:24.877Z,73.83
2018-11-07T15:19:52.951Z,73.68
2018-11-07T15:22:21.360Z,74.83
2018-11-07T15:24:49.516Z,75.04
2018-11-07T15:27:17.570Z,75.38
2018-11-07T15:29:45.660Z,75.00
2018-11-07T15:32:13.807Z,75.47
2018-11-07T15:34:41.899Z,75.54
2018-11-07T15:37:09.982Z,76.38
2018-11-07T15:39:38.091Z,75.93
2018-11-07T15:42:06.209Z,76.92
2018-11-07T15:44:34.308Z,77.18
2018-11-07T15:47:02.472Z,78.04
2018-11-07T15:49:30.544Z,78.17
2018-11-07T15:51:58.791Z,78.49
2018-11-07T15:54:26.819Z,78.67
2018-11-07T15:56:54.979Z,78.77
2018-11-07T15:59:23.108Z,80.09
2018-11-07T16:01:51.264Z,79.80
2018-11-07T16:04:19.384Z,80.42
2018-11-07T16:06:47.467Z,80.32
2018-11-07T16:09:15.579Z,80.88
2018-11-07T16:11:43.666Z,81.31
2018-11-07T16:14:11.785Z,81.42
2018-11-07T16:16:39.897Z,81.64
2018-11-07T16:19:08.000Z,81.41
2018-11-07T16:21:36.096Z,81.18
2018-11-07T16:24:11.021Z,81.71
2018-11-07T16:26:39.076Z,82.37
2018-11-07T16:29:07.136Z,82.46
2018-11-07T16:31:35.298Z,83.16
2018-11-07T16:34:03.345Z,83.87
2018-11-07T16:36:31.984Z,84.29
2018-11-07T16:39:00.114Z,84.47
2018-11-07T16:41:28.319Z,84.81
2018-11-07T16:43:56.331Z,84.55
2018-11-07T16:46:24.542Z,84.23
2018-11-07T16:48:52.600Z,84.93
2018-11-07T16:51:20.706Z,85.50
2018-11-07T16:54:25.899Z,85.56
2018-11-07T16:56:54.056Z,86.31
2018-11-07T16:59:22.146Z,87.05
2018-11-07T17:01:50.261Z,86.76
2018-11-07T17:04:18.414Z,87.25
2018-11-07T17:06:46.480Z,88.15
2018-11-07T17:09:14.641Z,89.19
2018-11-07T17:11:42.759Z,89.08
2018-11-07T17:14:10.844Z,89.24
2018-11-07T17:16:38.971Z,88.29
2018-11-07T17:19:07.124Z,88.06
2018-11-07T17:21:35.222Z,87.57
2018-11-07T17:24:03.348Z,87.23
2018-11-07T17:26:32.152Z,88.10
2018-11-07T17:29:00.230Z,87.63
2018-11-07T17:31:28.615Z,88.02
2018-11-07T17:33:56.736Z,88.41
2018-11-07T17:36:24.915Z,88.01
2018-11-07T17:38:53.124Z,87.88
2018-11-07T17:41:21.312Z,88.27
2018-11-07T17:43:49.415Z,88.65
2018-11-07T17:46:17.513Z,88.91
2018-11-07T17:48:46.676Z,89.91
2018-11-07T17:51:14.811Z,89.20
2018-11-07T17:53:42.926Z,90.46
2018-11-07T17:56:11.039Z,90.72
2018-11-07T17:58:39.145Z,90.67
2018-11-07T18:01:07.300Z,90.66
2018-11-07T18:03:35.493Z,91.23
2018-11-07T18:06:03.554Z,91.56
2018-11-07T18:08:31.915Z,92.56
2018-11-07T18:11:00.035Z,92.76
2018-11-07T18:13:28.139Z,92.27
2018-11-07T18:15:56.251Z,92.07
2018-11-07T18:18:24.365Z,92.24
2018-11-07T18:20:52.459Z,92.24
2018-11-07T18:23:20.586Z,91.35
2018-11-07T18:25:48.875Z,91.28
2018-11-07T18:28:16.972Z,91.17
2018-11-07T18:30:45.107Z,91.39
2018-11-07T18:33:13.286Z,91.04
2018-11-07T18:35:41.401Z,90.58
2018-11-07T18:38:09.571Z,90.49
2018-11-07T18:40:37.707Z,91.57
2018-11-07T18:43:05.910Z,91.48
2018-11-07T18:45:33.957Z,92.49
2018-11-07T18:48:02.061Z,94.04
2018-11-07T18:50:30.178Z,95.70
2018-11-07T18:52:58.303Z,95.14
2018-11-07T18:55:26.427Z,95.47
2018-11-07T18:57:54.583Z,95.49
2018-11-07T19:00:22.665Z,95.62
2018-11-07T19:02:50.982Z,95.17
2018-11-07T19:05:19.408Z,94.05
2018-11-07T19:07:47.509Z,94.01
2018-11-07T19:10:17.082Z,95.00
2018-11-07T19:12:45.965Z,94.67
2018-11-07T19:15:14.971Z,94.66
2018-11-07T19:17:44.187Z,93.79
2018-11-07T19:20:13.521Z,94.38
2018-11-07T19:22:41.795Z,93.97
2018-11-07T19:25:12.080Z,94.51
2018-11-07T19:27:40.189Z,94.45
2018-11-07T19:30:10.469Z,94.25
2018-11-07T19:32:38.652Z,94.48
2018-11-07T19:35:08.485Z,94.53
2018-11-07T19:37:36.661Z,94.72
2018-11-07T19:40:05.919Z,94.88
2018-11-07T19:42:34.175Z,95.01
2018-11-07T19:45:05.099Z,94.43
2018-11-07T19:47:34.275Z,94.82
2018-11-07T19:50:02.365Z,95.36
2018-11-07T19:52:30.475Z,95.37
2018-11-07T19:54:58.639Z,94.74
2018-11-07T19:57:26.837Z,95.19
2018-11-07T19:59:54.986Z,94.83
2018-11-07T20:02:23.134Z,94.64
2018-11-07T20:04:51.292Z,95.05
2018-11-07T20:07:19.382Z,95.54
2018-11-07T20:09:47.623Z,96.79
2018-11-07T20:12:15.732Z,96.83
2018-11-07T20:14:43.857Z,97.19
2018-11-07T20:17:12.074Z,96.94
2018-11-07T20:19:40.097Z,97.23
2018-11-07T20:22:08.223Z,96.52
2018-11-07T20:24:36.823Z,96.67
2018-11-07T20:27:05.790Z,97.05
2018-11-07T20:29:33.910Z,96.93
2018-11-07T20:32:02.092Z,96.53
2018-11-07T20:34:30.275Z,96.92
2018-11-07T20:36:58.448Z,96.27
2018-11-07T20:39:26.578Z,96.26
2018-11-07T20:41:54.735Z,96.32
2018-11-07T20:44:22.872Z,96.15
2018-11-07T20:46:51.040Z,97.25
2018-11-07T20:49:19.217Z,98.03
2018-11-07T20:51:47.443Z,98.14
2018-11-07T20:54:15.580Z,98.24
2018-11-07T20:56:43.724Z,98.72
2018-11-07T20:59:11.851Z,98.38
2018-11-07T21:01:40.104Z,98.47
2018-11-07T21:04:08.172Z,98.88
2018-11-07T21:06:36.320Z,99.18
2018-11-07T21:09:06.536Z,99.81
2018-11-07T21:11:34.641Z,99.18
2018-11-07T21:14:02.758Z,99.59
2018-11-07T21:16:30.911Z,99.83
2018-11-07T21:18:59.005Z,99.36
2018-11-07T21:21:27.216Z,99.61
2018-11-07T21:23:55.432Z,99.02
2018-11-07T21:26:23.965Z,98.51
2018-11-07T21:28:52.691Z,99.13
2018-11-07T21:31:20.795Z,99.76
2018-11-07T21:33:48.933Z,100.00
2018-11-07T21:36:17.066Z,100.00
2018-11-07T21:38:45.189Z,100.00
2018-11-07T21:41:13.332Z,100.00
2018-11-07T21:43:42.052Z,100.00
2018-11-07T21:46:10.177Z,100.00
2018-11-07T21:48:38.628Z,99.75
2018-11-07T21:51:06.742Z,99.63
2018-11-07T21:53:34.907Z,99.78
2018-11-07T21:56:03.024Z,99.89
2018-11-07T21:58:31.127Z,100.00
2018-11-07T22:00:59.256Z,100.00
2018-11-07T22:03:27.385Z,99.54
2018-11-07T22:05:55.483Z,99.26
2018-11-07T22:08:23.586Z,99.76
2018-11-07T22:10:51.691Z,99.20
2018-11-07T22:13:20.073Z,99.06
2018-11-07T22:15:48.132Z,99.27
2018-11-07T22:18:16.277Z,99.52
2018-11-07T22:20:44.753Z,99.20
2018-11-07T22:23:13.096Z,99.61
2018-11-07T22:25:41.197Z,99.12
2018-11-07T22:28:09.307Z,99.18
2018-11-07T22:30:37.422Z,98.68
2018-11-07T22:33:05.689Z,99.02
2018-11-07T22:35:33.884Z,98.84
2018-11-07T22:38:02.044Z,98.79
2018-11-07T22:40:31.611Z,97.98
2018-11-07T22:43:02.354Z,98.25
2018-11-07T22:45:30.536Z,98.58
2018-11-07T22:47:58.644Z,97.73
2018-11-07T22:50:26.953Z,97.64
2018-11-07T22:52:55.074Z,97.58
2018-11-07T22:55:23.221Z,97.30
2018-11-07T22:57:51.380Z,98.07
2018-11-07T23:00:24.889Z,97.56
2018-11-07T23:02:55.236Z,98.10
2018-11-07T23:05:23.428Z,98.12
2018-11-07T23:07:51.986Z,97.86
2018-11-07T23:10:20.130Z,97.81
2018-11-07T23:12:48.716Z,96.89
2018-11-07T23:15:22.254Z,97.53
2018-11-07T23:17:50.829Z,97.77
2018-11-07T23:20:18.998Z,97.02
2018-11-07T23:22:47.207Z,97.94
2018-11-07T23:25:15.431Z,97.75
2018-11-07T23:27:43.624Z,98.22
2018-11-07T23:30:12.733Z,97.52
2018-11-07T23:32:40.879Z,98.47
2018-11-07T23:35:09.439Z,98.31
2018-11-07T23:37:37.634Z,97.60
2018-11-07T23:40:06.056Z,97.88
2018-11-07T23:42:34.460Z,97.95
2018-11-07T23:45:02.677Z,97.67
2018-11-07T23:47:30.927Z,97.77
2018-11-07T23:49:59.060Z,97.90
2018-11-07T23:52:32.606Z,97.66
2018-11-07T23:55:01.031Z,98.20
2018-11-07T23:57:29.227Z,97.68
2018-11-07T23:59:57.303Z,97.63
